UAE152 EKCH-OMDB
Flight info
| Callsign | UAE152 |
|---|---|
| Flight time | N/A |
| Altitude | 39000 |
| Route | SALLO M44 KOGIM DCT LUROS DCT HDO DCT PISAM DCT SASAL DCT KOPRY DCT GACMO DCT DIMIS DCT IPTES UL604 SALUN N705 MMA/N0482F410 P751 DASUM Y234 FYM M872 BDB Y214 RAPMA DCT KUVSO DCT KATIT DCT PEKEM M628 RIGIL G783 ELUDA/N0501F350 G783 ASPED Q308 KIPOK Q568 IMPED |
| Aircraft | A359/H-SDE2E3GHIJ3J4J5LM1ORWXY/LB1D1 |
Departure
| Time | N/A |
|---|---|
| Airport | Copenhagen Kastrup Airport (EKCH) |
Arrival
| Time | 2026-04-24 14:23 |
|---|---|
| Airport | Dubai International Airport (OMDB) |
| Time | Latitude | Longitude | Altitude | Speed | Heading |
|---|---|---|---|---|---|
| 2026-04-24 14:11 | 24.56317 | 55.42989 | 15861 ft | 434 kts | 40° |
| 2026-04-24 14:12 | 24.58586 | 55.45159 | 15213 ft | 431 kts | 40° |
| 2026-04-24 14:12 | 24.60859 | 55.47289 | 14575 ft | 427 kts | 40° |
| 2026-04-24 14:12 | 24.63125 | 55.49374 | 13953 ft | 422 kts | 39° |
| 2026-04-24 14:12 | 24.65348 | 55.51395 | 13323 ft | 419 kts | 39° |
| 2026-04-24 14:13 | 24.67583 | 55.53415 | 12640 ft | 414 kts | 39° |
| 2026-04-24 14:13 | 24.69876 | 55.55309 | 11969 ft | 411 kts | 32° |
| 2026-04-24 14:13 | 24.72466 | 55.56674 | 11313 ft | 406 kts | 17° |
| 2026-04-24 14:13 | 24.75194 | 55.57393 | 10677 ft | 401 kts | 9° |
| 2026-04-24 14:14 | 24.77935 | 55.57923 | 10041 ft | 399 kts | 8° |
| 2026-04-24 14:14 | 24.80671 | 55.58414 | 9392 ft | 397 kts | 7° |
| 2026-04-24 14:14 | 24.86030 | 55.59355 | 8083 ft | 388 kts | 7° |
| 2026-04-24 14:15 | 24.88683 | 55.59817 | 7446 ft | 384 kts | 7° |
| 2026-04-24 14:15 | 24.91306 | 55.60272 | 6813 ft | 379 kts | 7° |
| 2026-04-24 14:15 | 24.93890 | 55.60722 | 6282 ft | 372 kts | 6° |
| 2026-04-24 14:15 | 24.96438 | 55.61164 | 5839 ft | 369 kts | 7° |
| 2026-04-24 14:16 | 24.98967 | 55.61602 | 5409 ft | 367 kts | 7° |
| 2026-04-24 14:16 | 25.01479 | 55.62038 | 4976 ft | 365 kts | 7° |
| 2026-04-24 14:16 | 25.03971 | 55.62471 | 4551 ft | 359 kts | 6° |
| 2026-04-24 14:17 | 25.08702 | 55.63310 | 4024 ft | 325 kts | 8° |
| 2026-04-24 14:17 | 25.10842 | 55.63243 | 4014 ft | 296 kts | 341° |
| 2026-04-24 14:17 | 25.13305 | 55.60329 | 4003 ft | 260 kts | 286° |
| 2026-04-24 14:18 | 25.13862 | 55.58423 | 3968 ft | 263 kts | 289° |
| 2026-04-24 14:18 | 25.14546 | 55.56549 | 3662 ft | 263 kts | 293° |
| 2026-04-24 14:18 | 25.15017 | 55.55320 | 3296 ft | 261 kts | 292° |
| 2026-04-24 14:18 | 25.15848 | 55.53577 | 2822 ft | 251 kts | 300° |
| 2026-04-24 14:19 | 25.16736 | 55.51995 | 2481 ft | 232 kts | 300° |
| 2026-04-24 14:19 | 25.17501 | 55.50550 | 2223 ft | 206 kts | 301° |
| 2026-04-24 14:19 | 25.18206 | 55.49246 | 1994 ft | 190 kts | 302° |
| 2026-04-24 14:19 | 25.18873 | 55.48028 | 1739 ft | 183 kts | 304° |
| 2026-04-24 14:20 | 25.19536 | 55.46828 | 1498 ft | 184 kts | 304° |
| 2026-04-24 14:20 | 25.20200 | 55.45630 | 1260 ft | 180 kts | 304° |
| 2026-04-24 14:20 | 25.20829 | 55.44487 | 1038 ft | 168 kts | 304° |
| 2026-04-24 14:20 | 25.21417 | 55.43422 | 846 ft | 156 kts | 303° |
| 2026-04-24 14:21 | 25.21961 | 55.42433 | 665 ft | 144 kts | 304° |
| 2026-04-24 14:21 | 25.22457 | 55.41533 | 482 ft | 131 kts | 305° |
| 2026-04-24 14:21 | 25.22915 | 55.40700 | 311 ft | 124 kts | 303° |
| 2026-04-24 14:21 | 25.23360 | 55.39890 | 159 ft | 125 kts | 304° |
| 2026-04-24 14:22 | 25.23816 | 55.39068 | 38 ft | 124 kts | 303° |
| 2026-04-24 14:22 | 25.24223 | 55.38348 | 32 ft | 95 kts | 302° |
| 2026-04-24 14:22 | 25.24737 | 55.37408 | 29 ft | 53 kts | 294° |
| 2026-04-24 14:23 | 25.24783 | 55.37167 | 30 ft | 23 kts | 272° |
| 2026-04-24 14:23 | 25.24785 | 55.37125 | 30 ft | 0 kts | 272° |
| 2026-04-24 14:23 | 25.24786 | 55.37096 | 29 ft | 11 kts | 271° |
| 2026-04-24 14:23 | 25.24798 | 55.36957 | 28 ft | 20 kts | 291° |
| 2026-04-24 14:24 | 25.24858 | 55.36809 | 28 ft | 22 kts | 283° |
| 2026-04-24 14:24 | 25.24905 | 55.36644 | 28 ft | 23 kts | 295° |
| 2026-04-24 14:24 | 25.24987 | 55.36497 | 28 ft | 23 kts | 302° |
| 2026-04-24 14:24 | 25.25075 | 55.36342 | 28 ft | 25 kts | 302° |
| 2026-04-24 14:25 | 25.25158 | 55.36187 | 28 ft | 23 kts | 302° |
| 2026-04-24 14:25 | 25.25246 | 55.36036 | 28 ft | 24 kts | 303° |
| 2026-04-24 14:25 | 25.25332 | 55.35885 | 27 ft | 14 kts | 301° |
| 2026-04-24 14:25 | 25.25374 | 55.35805 | 27 ft | 13 kts | 301° |
| 2026-04-24 14:26 | 25.25426 | 55.35710 | 27 ft | 15 kts | 297° |
| 2026-04-24 14:26 | 25.25402 | 55.35655 | 27 ft | 8 kts | 218° |
| 2026-04-24 14:26 | 25.25346 | 55.35615 | 27 ft | 11 kts | 211° |
| 2026-04-24 14:26 | 25.25294 | 55.35580 | 27 ft | 3 kts | 211° |
| 2026-04-24 14:27 | 25.25288 | 55.35576 | 27 ft | 0 kts | 211° |